ADDS METAR Data INFO
IDs: Format: Raw Decoded Include TAF

Data at: 0838 UTC 21 Oct 2017

KMIV 210754Z AUTO 35003KT 10SM CLR 09/07 A3026 RMK AO2 SLP244 T00890072 TSNO
KMIV 210654Z AUTO 00000KT 10SM CLR 09/07 A3026 RMK AO2 SLP244 T00890067 TSNO
KMIV 210554Z AUTO 00000KT 10SM CLR 09/07 A3025 RMK AO2 SLP243 T00890072 10122 20083 51007 TSNO
KMIV 210454Z AUTO 00000KT 10SM CLR 09/07 A3025 RMK AO2 SLP242 T00890072 402440083 TSNO
KMIV 210354Z AUTO 26004KT 10SM CLR 09/07 A3024 RMK AO2 SLP238 T00940072 TSNO
KMIV 210254Z AUTO 00000KT 10SM CLR 11/09 A3023 RMK AO2 SLP235 T01110089 53012 TSNO
KMIV 210154Z AUTO 00000KT 10SM CLR 11/08 A3022 RMK AO2 SLP231 T01060083 TSNO
KMIV 210054Z AUTO 27004KT 10SM CLR 11/09 A3020 RMK AO2 SLP226 T01110089 TSNO
KMIV 202354Z AUTO 25004KT 10SM CLR 12/09 A3019 RMK AO2 SLP223 T01170094 10244 20117 53015 TSNO
KMIV 202254Z AUTO 27003KT 10SM CLR 14/10 A3018 RMK AO2 SLP219 T01390100 TSNO
KMIV 202154Z AUTO 27004KT 10SM CLR 19/08 A3016 RMK AO2 SLP211 T01940083 TSNO
KMIV 202054Z AUTO 30007KT 10SM CLR 23/07 A3015 RMK AO2 SLP208 T02330067 56008 TSNO
KMIV 201954Z AUTO 31007KT 10SM CLR 24/04 A3015 RMK AO2 SLP209 T02440044 TSNO
KMIV 201854Z AUTO 30010KT 10SM CLR 24/06 A3016 RMK AO2 SLP212 T02440056 TSNO
KMIV 201754Z AUTO 32009KT 10SM CLR 24/04 A3017 RMK AO2 SLP217 T02390039 10244 20117 58014 TSNO
KMIV 201654Z AUTO 32007KT 10SM CLR 23/04 A3019 RMK AO2 SLP223 T02330039 TSNO
KMIV 201554Z AUTO 33010KT 10SM CLR 23/06 A3021 RMK AO2 SLP228 T02280056 TSNO
KMIV 201454Z AUTO 35011KT 10SM CLR 21/09 A3022 RMK AO2 SLP230 T02110094 50012 TSNO
KMIV 201354Z AUTO 33007KT 10SM CLR 19/12 A3022 RMK AO2 SLP231 T01940117 TSNO
KMIV 201254Z AUTO 31008KT 10SM CLR 17/11 A3020 RMK AO2 SLP227 T01720111 TSNO
KMIV 201154Z AUTO 29006KT 10SM CLR 12/11 A3018 RMK AO2 SLP219 T01170106 10117 20083 53015 TSNO
KMIV 201054Z AUTO 27007KT 10SM CLR 10/09 A3016 RMK AO2 SLP212 T01000094 TSNO
KMIV 200954Z AUTO 27006KT 10SM CLR 11/10 A3015 RMK AO2 SLP209 T01060100 TSNO
KMIV 200854Z AUTO 00000KT 10SM CLR 08/08 A3014 RMK AO2 SLP203 T00830078 55000 TSNO
KMIV 200754Z AUTO 00000KT 10SM CLR 09/08 A3014 RMK AO2 SLP203 T00890083 TSNO
KMIV 200654Z AUTO 27003KT 10SM CLR 09/09 A3014 RMK AO2 SLP203 T00940089 TSNO
KMIV 200554Z AUTO 26003KT 10SM CLR 10/09 A3014 RMK AO2 SLP204 T01000094 10128 20089 58003 TSNO
KMIV 200454Z AUTO 26003KT 10SM CLR 09/09 A3014 RMK AO2 SLP206 T00890089 402220056 TSNO
KMIV 200354Z AUTO 00000KT 10SM CLR 09/09 A3015 RMK AO2 SLP208 T00940089 TSNO
KMIV 200254Z AUTO 00000KT 10SM CLR 09/09 A3015 RMK AO2 SLP207 T00940089 56000 TSNO
KMIV 200154Z AUTO 00000KT 10SM CLR 10/09 A3015 RMK AO2 SLP207 T01000089 TSNO
KMIV 200054Z AUTO 00000KT 10SM CLR 10/10 A3014 RMK AO2 SLP206 T01000100 TSNO
KMIV 192354Z AUTO 25003KT 10SM CLR 13/13 A3015 RMK AO2 SLP208 T01280128 10222 20122 53002 TSNO
KMIV 192254Z AUTO 00000KT 10SM CLR 15/13 A3013 RMK AO2 SLP203 T01500133 TSNO
KMIV 192154Z AUTO 00000KT 10SM CLR 19/13 A3014 RMK AO2 SLP204 T01890128 TSNO
KMIV 192054Z AUTO 00000KT 10SM CLR 21/12 A3014 RMK AO2 SLP205 T02110117 56023 TSNO